Terminal Aerodrome Forecast
Issued by NWS Portland, OR

Home | Current Version | Previous Version | Text Only | Print | Product List | Glossary On
Versions: 1 2 3 4 5 6 7 8 9 10 11 12 13 14 15 16 17 18 19 20 21 22 23 24 25 26 27 28 29 30 31 32 33 34 35 36 37 38 39 40 41 42 43
000
FTUS46 KPQR 290530
TAFTTD
TAF
KTTD 290530Z 2906/3006 23004KT P6SM -SHRA SCT025 BKN045 BKN060
     FM291000 22004KT P6SM -SHRA BKN025 OVC045
     FM291200 VRB03KT P6SM -SHRASN BKN025 OVC040
     FM291500 09006KT P6SM VCSH SCT025 BKN045
     FM291800 08018G28KT P6SM SCT045
     FM300000 09025G38KT P6SM SKC=

USA.gov is the U.S. government's official web portal to all federal, state and local government web resources and services.